BBC Delaware — V2CN9 — position and weather

sailwx.info

Track history (hours):
 
Tides and Currents Weather Stations Pressure Air Temp Water Temp Dewpoint Dewpoint Depression Visibility Wind Speed Wind Dir Waves Ship Positions

BBC Delaware

Last reported at 2014-Oct-26 07:24 UTC. Time now 2014-Oct-30 15:18 UTC.
Position N 29°32' W 015°07'.

Length 138 m; draft 6.5 m.

Type: Cargo ship. MMSI: 305057000.

Date/timePositionNaut miles runAvg speedWind from/ knotsBaromVisibWave heightAir tempDewpointWater temp
2014-Oct-26 07:24N 29°32' W 015°07'9011.4
2014-Oct-25 23:33N 29°16' W 016°48'2512.3
2014-Oct-25 21:33N 29°11' W 017°16'8712.2
2014-Oct-25 14:26N 28°46' W 018°51'1112.3
2014-Oct-25 13:33N 28°42' W 019°02'4112.3
2014-Oct-25 10:15N 28°27' W 019°45'812.0
2014-Oct-25 09:33N 28°25' W 019°54'1212.1
2014-Oct-25 08:33N 28°20' W 020°07'1211.9
2014-Oct-25 07:33N 28°16' W 020°19'  
Track history (hours):
 
Tides and Currents Weather Stations Pressure Air Temp Water Temp Dewpoint Dewpoint Depression Visibility Wind Speed Wind Dir Waves Ship Positions

BBC Delaware

Last reported at 2014-Oct-26 07:24 UTC. Time now 2014-Oct-30 15:18 UTC.
Position N 29°32' W 015°07'.

Length 138 m; draft 6.5 m.

Type: Cargo ship. MMSI: 305057000.

Date/timePositionNaut miles runAvg speedWind from/ knotsBaromVisibWave heightAir tempDewpointWater temp
2014-Oct-26 07:24N 29°32' W 015°07'9011.4
2014-Oct-25 23:33N 29°16' W 016°48'2512.3
2014-Oct-25 21:33N 29°11' W 017°16'8712.2
2014-Oct-25 14:26N 28°46' W 018°51'1112.3
2014-Oct-25 13:33N 28°42' W 019°02'4112.3
2014-Oct-25 10:15N 28°27' W 019°45'812.0
2014-Oct-25 09:33N 28°25' W 019°54'1212.1
2014-Oct-25 08:33N 28°20' W 020°07'1211.9
2014-Oct-25 07:33N 28°16' W 020°19'  

Dump ship's entire track history